Latest Coastal Weather Observations for Hobart

IDT60701

Issued at 7:27 pm EDT Tuesday 31 March 2015 (issued every 10 minutes, with the page automatically refreshed every 10 minutes)

About coastal observations | Map of coastal stations | Coastal observations for TAS | Marine services | Other Formats
Station Details ID: 094029 Name: HOBART (ELLERSLIE ROAD) Lat: -42.89 Lon: 147.33 Height: 50.5 m
Data from the previous 72 hours. | See also: Recent months at Hobart
Date/Time
EDT
Temp

°C
Wind Pressure Rain
since 9am
mm
Weather Cloud Vis
km
Sea
Height
m
Swell
Dir
 
Speed
knots
Gust
knots
hPa Trend Height
m
Period
s
Dir
31/07:00pm 15.9 SSW 7 11 1020.4 - 0.0 - - - - - - -
31/06:30pm 16.8 SSW 7 10 1020.2 - 0.0 - - - - - - -
31/06:00pm 17.0 ESE 9 11 1020.0 - 0.0 - - - - - - -
31/05:30pm 19.0 SE 10 13 1019.9 - 0.0 - - - - - - -
31/05:00pm 19.3 ESE 8 11 1020.0 - 0.0 - - - - - - -
31/04:30pm 18.7 SE 8 11 1020.1 - 0.0 - - - - - - -
31/04:00pm 18.5 ESE 10 13 1020.3 - 0.0 - - - - - - -
31/03:30pm 19.1 ESE 7 10 1020.4 - 0.0 - - - - - - -
31/03:00pm 18.4 ESE 8 11 1020.6 - 0.0 - - - - - - -
31/02:30pm 18.9 ESE 8 11 1020.7 - 0.0 - - - - - - -
31/02:00pm 20.9 N 5 8 1021.1 - 0.0 - - - - - - -
31/01:30pm 20.8 NE 8 11 1021.4 - 0.0 - - - - - - -
31/01:00pm 20.3 NNW 7 11 1022.1 - 0.0 - - - - - - -
31/12:30pm 19.8 N 8 13 1022.3 - 0.0 - - - - - - -
31/12:00pm 18.6 N 9 13 1022.6 - 0.0 - - - - - - -
31/11:30am 17.9 NNW 10 13 1022.9 - 0.0 - - - - - - -
31/11:00am 16.8 NNW 9 12 1023.2 - 0.0 - - - - - - -
31/10:30am 16.1 NNW 7 9 1023.6 - 0.0 - - - - - - -
31/10:00am 15.4 NNW 9 12 1023.9 - 0.0 - - - - - - -
31/09:30am 14.0 N 7 10 1023.9 - 0.0 - - - - - - -
31/09:00am 13.0 NNW 9 11 1023.9 - 0.2 - - - - - - -
31/08:30am 12.0 NNW 4 7 1023.8 - 0.2 - - - - - - -
31/08:00am 10.2 WNW 5 7 1023.7 - 0.2 - - - - - - -
31/07:30am 9.6 WNW 3 5 1023.5 - 0.2 - - - - - - -
31/07:00am 9.6 WNW 5 7 1023.2 - 0.2 - - - - - - -
31/06:30am 9.8 WNW 5 6 1023.0 - 0.2 - - - - - - -
31/06:00am 9.9 NNW 3 5 1022.9 - 0.2 - - - - - - -
31/05:30am 10.5 WNW 4 6 1022.8 - 0.2 - - - - - - -
31/05:00am 10.7 W 4 6 1022.7 - 0.2 - - - - - - -
31/04:30am 11.1 WNW 7 9 1022.5 - 0.2 - - - - - - -
31/04:00am 11.0 NW 7 9 1022.5 - 0.2 - - - - - - -
31/03:30am 10.9 WNW 4 5 1022.7 - 0.2 - - - - - - -
31/03:00am 11.6 W 4 6 1022.7 - 0.2 - - - - - - -
31/02:30am 11.6 WNW 4 6 1022.8 - 0.2 - - - - - - -
31/02:00am 11.8 WSW 6 9 1022.9 - 0.2 - - - - - - -
31/01:30am 12.0 W 5 8 1022.9 - 0.2 - - - - - - -
31/01:00am 12.3 W 5 7 1022.9 - 0.2 - - - - - - -
31/12:30am 13.6 NW 8 12 1022.8 - 0.2 - - - - - - -
31/12:00am 13.6 NW 8 12 1022.7 - 0.2 - - - - - - -
 
Date/Time
EDT
Temp

°C
Wind Pressure Rain
since 9am
mm
Weather Cloud Vis
km
Sea
Height
m
Swell
Dir
 
Speed
knots
Gust
knots
hPa Trend Height
m
Period
s
Dir
30/11:30pm 13.1 WNW 7 13 1022.7 - 0.2 - - - - - - -
30/11:00pm 13.6 NW 4 7 1022.7 - 0.2 - - - - - - -
30/10:30pm 14.8 N 5 10 1022.7 - 0.2 - - - - - - -
30/10:00pm 13.8 WNW 6 9 1022.6 - 0.2 - - - - - - -
30/09:30pm 13.8 WSW 9 11 1022.4 - 0.2 - - - - - - -
30/09:00pm 14.4 WSW 9 10 1022.1 - 0.2 - - - - - - -
30/08:30pm 15.3 W 6 8 1021.8 - 0.2 - - - - - - -
30/08:00pm 16.3 WSW 7 15 1021.3 - 0.2 - - - - - - -
30/07:30pm 17.3 NW 8 13 1021.0 - 0.2 - - - - - - -
30/07:00pm 17.9 NNW 6 9 1020.6 - 0.2 - - - - - - -
30/06:30pm 18.5 NW 9 12 1020.2 - 0.2 - - - - - - -
30/06:00pm 18.3 NNE 3 8 1019.6 - 0.2 - - - - - - -
30/05:30pm 18.5 E 7 13 1019.2 - 0.2 - - - - - - -
30/05:00pm 20.2 ENE 7 14 1018.6 - 0.2 - - - - - - -
30/04:30pm 20.6 SE 8 10 1018.3 - 0.2 - - - - - - -
30/04:00pm 20.5 SE 7 11 1018.2 - 0.2 - - - - - - -
30/03:30pm 22.9 NNW 9 15 1018.0 - 0.2 - - - - - - -
30/03:00pm 22.5 NW 12 17 1017.9 - 0.2 - - - - - - -
30/02:30pm 22.2 NW 14 22 1017.7 - 0.2 - - - - - - -
30/02:00pm 21.8 WNW 16 27 1017.7 - 0.2 - - - - - - -
30/01:30pm 21.5 WNW 15 31 1017.8 - 0.2 - - - - - - -
30/01:02pm 21.0 NW 16 27 1017.8 - 0.2 - - - - - - -
30/01:00pm 21.0 NW 17 25 1017.9 - 0.2 - - - - - - -
30/12:30pm 20.7 NW 15 25 1018.0 - 0.0 - - - - - - -
30/12:00pm 20.3 NNW 10 15 1018.2 - 0.0 - - - - - - -
30/11:30am 19.3 NNW 8 12 1018.4 - 0.0 - - - - - - -
30/11:00am 18.5 NNW 7 12 1018.5 - 0.0 - - - - - - -
30/10:30am 17.9 N 6 10 1018.4 - 0.0 - - - - - - -
30/10:00am 16.7 E 1 4 1018.2 - 0.0 - - - - - - -
30/09:30am 15.7 ESE 4 8 1017.9 - 0.0 - - - - - - -
30/09:00am 15.4 E 6 8 1017.7 - 1.4 - - - - - - -
30/08:30am 13.5 SE 3 5 1017.6 - 1.4 - - - - - - -
30/08:00am 12.6 SE 2 4 1017.3 - 1.4 - - - - - - -
30/07:30am 12.2 SE 3 7 1017.2 - 1.4 - - - - - - -
30/07:00am 12.1 SSW 6 9 1016.9 - 1.4 - - - - - - -
30/06:30am 11.5 S 4 6 1016.7 - 1.4 - - - - - - -
30/06:00am 12.1 NNW 7 8 1016.4 - 1.4 - - - - - - -
30/05:30am 11.2 N 5 8 1016.4 - 1.4 - - - - - - -
30/05:00am 11.1 CALM 0 0 1016.6 - 1.4 - - - - - - -
30/04:30am 10.7 N 1 4 1016.7 - 1.4 - - - - - - -
30/04:00am 11.0 N 3 4 1016.6 - 1.4 - - - - - - -
30/03:30am 10.3 NW 4 7 1016.7 - 1.4 - - - - - - -
30/03:00am 10.5 CALM 0 2 1017.0 - 1.4 - - - - - - -
30/02:30am 10.5 SW 1 5 1017.1 - 1.4 - - - - - - -
30/02:00am 10.3 W 4 7 1017.1 - 1.4 - - - - - - -
30/01:30am 10.4 W 6 8 1017.2 - 1.4 - - - - - - -
30/01:00am 10.9 WSW 5 8 1017.4 - 1.4 - - - - - - -
30/12:30am 11.4 SW 3 6 1017.5 - 1.4 - - - - - - -
30/12:00am 11.6 SSE 2 5 1017.8 - 1.4 - - - - - - -
 
Date/Time
EDT
Temp

°C
Wind Pressure Rain
since 9am
mm
Weather Cloud Vis
km
Sea
Height
m
Swell
Dir
 
Speed
knots
Gust
knots
hPa Trend Height
m
Period
s
Dir
29/11:30pm 10.9 SSW 5 6 1017.8 - 1.4 - - - - - - -
29/11:00pm 11.0 NW 6 8 1017.9 - 1.4 - - - - - - -
29/10:30pm 11.5 WSW 6 10 1018.1 - 1.4 - - - - - - -
29/10:00pm 12.0 WSW 6 9 1018.2 - 1.4 - - - - - - -
29/09:30pm 12.1 SW 7 9 1018.0 - 1.4 - - - - - - -
29/09:00pm 12.2 SW 5 7 1017.9 - 1.4 - - - - - - -
29/08:30pm 12.2 SW 4 6 1017.6 - 1.4 - - - - - - -
29/08:00pm 12.6 SW 5 8 1017.3 - 1.4 - - - - - - -
29/07:30pm 12.9 S 3 5 1016.9 - 1.4 - - - - - - -
29/07:00pm 13.0 SE 5 7 1016.8 - 1.4 - - - - - - -
29/06:30pm 13.0 SE 6 7 1016.5 - 1.4 - - - - - - -
29/06:00pm 12.9 SE 6 8 1016.2 - 1.4 - - - - - - -
29/05:30pm 12.9 SE 8 11 1016.0 - 1.4 - - - - - - -
29/05:00pm 12.9 SE 8 11 1015.9 - 1.4 - - - - - - -
29/04:30pm 12.7 ESE 8 12 1015.7 - 1.4 - - - - - - -
29/04:00pm 12.7 SE 8 11 1015.6 - 1.4 - - - - - - -
29/03:30pm 12.6 ESE 8 12 1015.6 - 1.4 - - - - - - -
29/03:00pm 12.7 ESE 10 13 1015.3 - 1.4 Recent precip. - - - - - -
29/02:30pm 13.2 SSE 3 5 1015.4 - 1.0 - - - - - - -
29/02:00pm 13.4 SE 10 14 1015.1 - 0.0 - - - - - - -
29/01:30pm 16.1 WNW 7 11 1014.8 - 0.0 - - - - - - -
29/01:00pm 16.1 NW 15 21 1014.4 - 0.0 - - - - - - -
29/12:30pm 16.0 NNW 14 18 1014.4 - 0.0 - - - - - - -
29/12:00pm 15.5 NNW 13 19 1014.4 - 0.0 - - - - - - -
29/11:30am 15.1 NW 12 17 1014.5 - 0.0 - - - - - - -
29/11:00am 14.9 NW 9 15 1014.6 - 0.0 - - - - - - -
29/10:30am 14.9 NNE 5 6 1014.4 - 0.0 - - - - - - -
29/10:00am 14.6 NNW 7 9 1014.6 - 0.0 - - - - - - -
29/09:30am 14.2 NW 8 14 1014.6 - 0.0 - - - - - - -
29/09:00am 14.6 NW 14 20 1014.3 - 0.0 - - - - - - -
29/08:30am 13.7 NNW 15 20 1014.2 - 0.0 - - - - - - -
29/08:00am 12.9 N 10 13 1014.4 - 0.0 - - - - - - -
29/07:30am 11.7 N 7 11 1014.4 - 0.0 - - - - - - -
29/07:00am 11.6 NNW 9 14 1014.1 - 0.0 - - - - - - -
29/06:30am 11.8 N 10 16 1013.9 - 0.0 - - - - - - -
29/06:00am 11.5 N 9 15 1013.9 - 0.0 - - - - - - -
29/05:30am 11.2 N 7 13 1013.9 - 0.0 - - - - - - -
29/05:00am 11.2 N 7 10 1013.9 - 0.0 - - - - - - -
29/04:30am 11.6 N 16 21 1014.0 - 0.0 - - - - - - -
29/04:00am 11.7 NNW 18 25 1014.6 - 0.0 - - - - - - -
29/03:30am 11.6 NNW 17 23 1014.2 - 0.0 - - - - - - -
29/03:00am 11.8 NNW 13 19 1014.7 - 0.0 - - - - - - -
29/02:30am 11.3 NW 11 16 1015.1 - 0.0 - - - - - - -
29/02:00am 10.7 WSW 6 10 1015.6 - 0.0 - - - - - - -
29/01:30am 11.3 S 1 6 1015.6 - 0.0 - - - - - - -
29/01:00am 11.2 WSW 5 9 1015.8 - 0.0 - - - - - - -
29/12:30am 10.8 W 5 10 1015.8 - 0.0 - - - - - - -
29/12:00am 11.1 NW 7 15 1016.2 - 0.0 - - - - - - -
 
Date/Time
EDT
Temp

°C
Wind Pressure Rain
since 9am
mm
Weather Cloud Vis
km
Sea
Height
m
Swell
Dir
 
Speed
knots
Gust
knots
hPa Trend Height
m
Period
s
Dir
28/11:30pm 10.6 NNW 6 8 1016.8 - 0.0 - - - - - - -
28/11:00pm 10.7 W 5 9 1017.2 - 0.0 - - - - - - -
28/10:30pm 11.2 WNW 1 4 1017.6 - 0.0 - - - - - - -
28/10:00pm 11.2 W 6 8 1017.9 - 0.0 - - - - - - -
28/09:30pm 11.7 WSW 8 10 1018.0 - 0.0 - - - - - - -
28/09:00pm 12.0 WSW 6 8 1018.1 - 0.0 - - - - - - -
28/08:30pm 12.5 WSW 6 9 1018.0 - 0.0 - - - - - - -
28/08:00pm 12.9 WSW 7 9 1018.0 - 0.0 - - - - - - -
28/07:30pm 13.6 SSW 5 9 1017.9 - 0.0 - - - - - - -

Other Formats:

Comma delimited format used in spreadsheet applications
http://www.bom.gov.au/fwo/IDT60701/IDT60701.94970.axf

JavaScript Object Notation format (JSON) in row-major order
http://www.bom.gov.au/fwo/IDT60701/IDT60701.94970.json